SIA211 WSSS-YSSY
Flight info
| Callsign | SIA211 |
|---|---|
| Flight time | N/A |
| Altitude | 39000 |
| Route | IDBUD1B IDBUD T24 SURGA M635 ATMAP A576 CIN/N0481F410 A576 APOMA Y52 VELGI Y105 TARAL Y59 RIVET |
| Aircraft | A359/H-SDE2E3GHIJ1J3J4J5LM1ORWXY/LB1D1 |
Departure
| Time | N/A |
|---|---|
| Airport | Singapore Changi Airport (WSSS) |
Arrival
| Time | 2026-05-04 09:03 |
|---|---|
| Airport | Sydney Kingsford Smith International Airport (YSSY) |
| Time | Latitude | Longitude | Altitude | Speed | Heading |
|---|---|---|---|---|---|
| 2026-05-04 06:41 | -22.91712 | 132.34435 | 41117 ft | 575 kts | 126° |
| 2026-05-04 06:41 | -22.93829 | 132.38118 | 41065 ft | 577 kts | 126° |
| 2026-05-04 06:42 | -22.98042 | 132.45478 | 41068 ft | 578 kts | 126° |
| 2026-05-04 06:44 | -23.14752 | 132.74457 | 41084 ft | 579 kts | 125° |
| 2026-05-04 06:44 | -23.19022 | 132.81877 | 41088 ft | 579 kts | 125° |
| 2026-05-04 06:45 | -23.23288 | 132.89303 | 41093 ft | 579 kts | 125° |
| 2026-05-04 06:45 | -23.27550 | 132.96731 | 41096 ft | 579 kts | 125° |
| 2026-05-04 06:46 | -23.31782 | 133.04120 | 41101 ft | 579 kts | 125° |
| 2026-05-04 06:46 | -23.36040 | 133.11562 | 41102 ft | 579 kts | 125° |
| 2026-05-04 06:48 | -23.53045 | 133.41399 | 41115 ft | 580 kts | 124° |
| 2026-05-04 06:50 | -23.69968 | 133.71269 | 41145 ft | 580 kts | 124° |
| 2026-05-04 06:51 | -23.74196 | 133.78761 | 41154 ft | 580 kts | 124° |
| 2026-05-04 06:51 | -23.78445 | 133.86254 | 41143 ft | 579 kts | 126° |
| 2026-05-04 06:52 | -23.83317 | 133.93134 | 41158 ft | 576 kts | 133° |
| 2026-05-04 06:52 | -23.88419 | 133.99874 | 41154 ft | 576 kts | 133° |
| 2026-05-04 06:53 | -23.93553 | 134.06582 | 41148 ft | 575 kts | 133° |
| 2026-05-04 06:53 | -23.98677 | 134.13305 | 41142 ft | 575 kts | 133° |
| 2026-05-04 06:54 | -24.03784 | 134.20038 | 41136 ft | 575 kts | 133° |
| 2026-05-04 06:54 | -24.08854 | 134.26741 | 41140 ft | 575 kts | 133° |
| 2026-05-04 06:55 | -24.13950 | 134.33487 | 41138 ft | 575 kts | 133° |
| 2026-05-04 06:55 | -24.19050 | 134.40246 | 41140 ft | 575 kts | 133° |
| 2026-05-04 06:57 | -24.39387 | 134.67289 | 41133 ft | 574 kts | 132° |
| 2026-05-04 06:58 | -24.44459 | 134.74058 | 41138 ft | 574 kts | 132° |
| 2026-05-04 06:58 | -24.49490 | 134.80780 | 41156 ft | 574 kts | 132° |
| 2026-05-04 06:59 | -24.54552 | 134.87554 | 41138 ft | 574 kts | 132° |
| 2026-05-04 06:59 | -24.59610 | 134.94330 | 41139 ft | 574 kts | 132° |
| 2026-05-04 07:01 | -24.79782 | 135.21457 | 41145 ft | 573 kts | 131° |
| 2026-05-04 07:02 | -24.84821 | 135.28257 | 41144 ft | 573 kts | 131° |
| 2026-05-04 07:02 | -24.89853 | 135.35058 | 41148 ft | 573 kts | 131° |
| 2026-05-04 07:03 | -24.94884 | 135.41867 | 41146 ft | 572 kts | 131° |
| 2026-05-04 07:03 | -24.99904 | 135.48670 | 41150 ft | 572 kts | 131° |
| 2026-05-04 07:04 | -25.04923 | 135.55482 | 41151 ft | 572 kts | 131° |
| 2026-05-04 07:04 | -25.09902 | 135.62249 | 41149 ft | 572 kts | 131° |
| 2026-05-04 07:05 | -25.14915 | 135.69073 | 41151 ft | 572 kts | 131° |
| 2026-05-04 07:05 | -25.19920 | 135.75896 | 41151 ft | 572 kts | 131° |
| 2026-05-04 07:06 | -25.27430 | 135.86150 | 41150 ft | 572 kts | 131° |
| 2026-05-04 07:07 | -25.32436 | 135.92999 | 41149 ft | 572 kts | 131° |
| 2026-05-04 07:09 | -25.52365 | 136.20363 | 41150 ft | 572 kts | 130° |
| 2026-05-04 07:09 | -25.57345 | 136.27227 | 41154 ft | 572 kts | 130° |
| 2026-05-04 07:10 | -25.62328 | 136.34103 | 41152 ft | 572 kts | 130° |
| 2026-05-04 07:12 | -25.82174 | 136.61596 | 41157 ft | 571 kts | 130° |
| 2026-05-04 07:12 | -25.87134 | 136.68493 | 41152 ft | 571 kts | 130° |
| 2026-05-04 07:13 | -25.92088 | 136.75392 | 41158 ft | 571 kts | 130° |
| 2026-05-04 07:13 | -25.96202 | 136.81131 | 41158 ft | 571 kts | 130° |
| 2026-05-04 07:14 | -26.08571 | 136.98429 | 41150 ft | 572 kts | 130° |
| 2026-05-04 07:15 | -26.13514 | 137.05360 | 41155 ft | 572 kts | 130° |
| 2026-05-04 07:15 | -26.18420 | 137.12251 | 41144 ft | 572 kts | 130° |
| 2026-05-04 07:16 | -26.23356 | 137.19192 | 41149 ft | 572 kts | 130° |
| 2026-05-04 07:16 | -26.29087 | 137.27266 | 41155 ft | 572 kts | 130° |
| 2026-05-04 07:17 | -26.33219 | 137.33095 | 41157 ft | 572 kts | 130° |
| 2026-05-04 07:17 | -26.38111 | 137.40007 | 41156 ft | 572 kts | 130° |
| 2026-05-04 07:18 | -26.43037 | 137.46978 | 41156 ft | 572 kts | 130° |
| 2026-05-04 07:18 | -26.47959 | 137.53953 | 41158 ft | 572 kts | 130° |
| 2026-05-04 07:19 | -26.52879 | 137.60938 | 41159 ft | 572 kts | 130° |
| 2026-05-04 07:19 | -26.57796 | 137.67929 | 41163 ft | 572 kts | 129° |
| 2026-05-04 07:20 | -26.62704 | 137.74917 | 41159 ft | 572 kts | 129° |
| 2026-05-04 07:20 | -26.67576 | 137.81865 | 41161 ft | 572 kts | 129° |
| 2026-05-04 07:22 | -26.87134 | 138.09866 | 41158 ft | 572 kts | 129° |
| 2026-05-04 07:23 | -26.92022 | 138.16892 | 41159 ft | 572 kts | 129° |
| 2026-05-04 07:23 | -26.96905 | 138.23923 | 41159 ft | 572 kts | 129° |
| 2026-05-04 07:24 | -27.01786 | 138.30961 | 41159 ft | 572 kts | 129° |
| 2026-05-04 07:24 | -27.06662 | 138.38006 | 41159 ft | 572 kts | 129° |
| 2026-05-04 07:26 | -27.26110 | 138.66210 | 41156 ft | 572 kts | 129° |
| 2026-05-04 07:27 | -27.30970 | 138.73287 | 41157 ft | 572 kts | 129° |
| 2026-05-04 07:27 | -27.35830 | 138.80374 | 41155 ft | 572 kts | 129° |
| 2026-05-04 07:28 | -27.40688 | 138.87471 | 41155 ft | 572 kts | 129° |
| 2026-05-04 07:28 | -27.45508 | 138.94523 | 41151 ft | 572 kts | 129° |
| 2026-05-04 07:29 | -27.50357 | 139.01629 | 41150 ft | 573 kts | 129° |
| 2026-05-04 07:29 | -27.55210 | 139.08752 | 41148 ft | 573 kts | 129° |
| 2026-05-04 07:30 | -27.60058 | 139.15880 | 41152 ft | 573 kts | 129° |
| 2026-05-04 07:30 | -27.64903 | 139.23017 | 41150 ft | 573 kts | 129° |
| 2026-05-04 07:31 | -27.69713 | 139.30111 | 41148 ft | 573 kts | 128° |
| 2026-05-04 07:33 | -27.89054 | 139.58759 | 41143 ft | 574 kts | 128° |
| 2026-05-04 07:33 | -27.93853 | 139.65898 | 41145 ft | 574 kts | 128° |
| 2026-05-04 07:34 | -27.98684 | 139.73095 | 41148 ft | 574 kts | 128° |
| 2026-05-04 07:34 | -28.03511 | 139.80298 | 41147 ft | 575 kts | 128° |
| 2026-05-04 07:35 | -28.08334 | 139.87507 | 41149 ft | 575 kts | 128° |
| 2026-05-04 07:35 | -28.13160 | 139.94734 | 41146 ft | 575 kts | 128° |
| 2026-05-04 07:36 | -28.17979 | 140.01961 | 41143 ft | 575 kts | 128° |
| 2026-05-04 07:38 | -28.37076 | 140.30727 | 41144 ft | 570 kts | 128° |
| 2026-05-04 07:38 | -28.41873 | 140.37979 | 41141 ft | 576 kts | 128° |
| 2026-05-04 07:39 | -28.46671 | 140.45249 | 41139 ft | 575 kts | 128° |
| 2026-05-04 07:39 | -28.51465 | 140.52526 | 41137 ft | 575 kts | 128° |
| 2026-05-04 07:40 | -28.56252 | 140.59805 | 41140 ft | 575 kts | 128° |
| 2026-05-04 07:40 | -28.61007 | 140.67046 | 41138 ft | 575 kts | 128° |
| 2026-05-04 07:41 | -28.65789 | 140.74341 | 41141 ft | 575 kts | 128° |
| 2026-05-04 07:41 | -28.70570 | 140.81648 | 41140 ft | 575 kts | 128° |
| 2026-05-04 07:42 | -28.75349 | 140.88964 | 41140 ft | 576 kts | 128° |
| 2026-05-04 07:42 | -28.80124 | 140.96286 | 41134 ft | 576 kts | 128° |
| 2026-05-04 07:43 | -28.84896 | 141.03618 | 41141 ft | 576 kts | 128° |
| 2026-05-04 07:43 | -28.89662 | 141.10953 | 41141 ft | 576 kts | 128° |
| 2026-05-04 07:44 | -28.94432 | 141.18306 | 41134 ft | 576 kts | 128° |
| 2026-05-04 07:44 | -28.99194 | 141.25661 | 41134 ft | 576 kts | 128° |
| 2026-05-04 07:45 | -29.03958 | 141.33031 | 41134 ft | 576 kts | 128° |
| 2026-05-04 07:45 | -29.08715 | 141.40403 | 41136 ft | 577 kts | 128° |
| 2026-05-04 07:46 | -29.13441 | 141.47741 | 41133 ft | 577 kts | 128° |
| 2026-05-04 07:46 | -29.18195 | 141.55135 | 41131 ft | 577 kts | 128° |
| 2026-05-04 07:47 | -29.22949 | 141.62541 | 41135 ft | 577 kts | 127° |
| 2026-05-04 07:49 | -29.41923 | 141.92237 | 41131 ft | 577 kts | 127° |
| 2026-05-04 07:49 | -29.46657 | 141.99680 | 41128 ft | 577 kts | 127° |
| 2026-05-04 07:50 | -29.51379 | 142.07117 | 41130 ft | 577 kts | 127° |
| 2026-05-04 07:50 | -29.56103 | 142.14571 | 41129 ft | 577 kts | 127° |
| 2026-05-04 07:51 | -29.60822 | 142.22030 | 41128 ft | 577 kts | 127° |
| 2026-05-04 07:51 | -29.65539 | 142.29499 | 41130 ft | 577 kts | 127° |
| 2026-05-04 07:52 | -29.70246 | 142.36967 | 41123 ft | 577 kts | 127° |
| 2026-05-04 07:52 | -29.74922 | 142.44399 | 41126 ft | 577 kts | 127° |
| 2026-05-04 07:54 | -29.93865 | 142.74287 | 41127 ft | 577 kts | 131° |
| 2026-05-04 07:55 | -29.98991 | 142.81397 | 41123 ft | 576 kts | 132° |
| 2026-05-04 07:55 | -30.04122 | 142.88508 | 41126 ft | 576 kts | 131° |
| 2026-05-04 07:56 | -30.09196 | 142.95677 | 41120 ft | 577 kts | 131° |
| 2026-05-04 07:56 | -30.14232 | 143.02868 | 41124 ft | 576 kts | 131° |
| 2026-05-04 07:57 | -30.19270 | 143.10083 | 41122 ft | 576 kts | 131° |
| 2026-05-04 07:57 | -30.24301 | 143.17295 | 41121 ft | 576 kts | 131° |
| 2026-05-04 07:58 | -30.29325 | 143.24504 | 41125 ft | 576 kts | 131° |
| 2026-05-04 07:58 | -30.34350 | 143.31726 | 41113 ft | 576 kts | 131° |
| 2026-05-04 07:59 | -30.39331 | 143.38898 | 41117 ft | 575 kts | 131° |
| 2026-05-04 07:59 | -30.44342 | 143.46127 | 41112 ft | 575 kts | 131° |
| 2026-05-04 08:00 | -30.49348 | 143.53362 | 41115 ft | 575 kts | 130° |
| 2026-05-04 08:02 | -30.69293 | 143.82323 | 41106 ft | 574 kts | 130° |
| 2026-05-04 08:02 | -30.74276 | 143.89591 | 41105 ft | 574 kts | 130° |
| 2026-05-04 08:03 | -30.79249 | 143.96858 | 41103 ft | 574 kts | 130° |
| 2026-05-04 08:03 | -30.84224 | 144.04142 | 41102 ft | 575 kts | 130° |
| 2026-05-04 08:04 | -30.89191 | 144.11426 | 41104 ft | 575 kts | 130° |
| 2026-05-04 08:04 | -30.94156 | 144.18722 | 41102 ft | 575 kts | 130° |
| 2026-05-04 08:05 | -30.99115 | 144.26022 | 41101 ft | 575 kts | 130° |
| 2026-05-04 08:05 | -31.04071 | 144.33333 | 41101 ft | 575 kts | 130° |
| 2026-05-04 08:06 | -31.09026 | 144.40655 | 41100 ft | 575 kts | 130° |
| 2026-05-04 08:06 | -31.13972 | 144.47978 | 41099 ft | 574 kts | 130° |
| 2026-05-04 08:08 | -31.33666 | 144.77273 | 41099 ft | 573 kts | 130° |
| 2026-05-04 08:11 | -31.55740 | 145.10374 | 41094 ft | 573 kts | 130° |
| 2026-05-04 08:11 | -31.62836 | 145.21075 | 41092 ft | 573 kts | 130° |
| 2026-05-04 08:12 | -31.67724 | 145.28465 | 41089 ft | 573 kts | 130° |
| 2026-05-04 08:12 | -31.72603 | 145.35854 | 41094 ft | 572 kts | 130° |
| 2026-05-04 08:13 | -31.77440 | 145.43194 | 41091 ft | 572 kts | 130° |
| 2026-05-04 08:13 | -31.82303 | 145.50587 | 41096 ft | 571 kts | 130° |
| 2026-05-04 08:14 | -31.87161 | 145.57988 | 41086 ft | 571 kts | 130° |
| 2026-05-04 08:16 | -32.06523 | 145.87626 | 41092 ft | 570 kts | 129° |
| 2026-05-04 08:16 | -32.11347 | 145.95046 | 41092 ft | 570 kts | 129° |
| 2026-05-04 08:17 | -32.15355 | 146.01222 | 41088 ft | 570 kts | 129° |
| 2026-05-04 08:17 | -32.20171 | 146.08656 | 41091 ft | 570 kts | 129° |
| 2026-05-04 08:19 | -32.39374 | 146.38447 | 41087 ft | 569 kts | 129° |
| 2026-05-04 08:20 | -32.44130 | 146.45862 | 41083 ft | 569 kts | 129° |
| 2026-05-04 08:20 | -32.48791 | 146.53143 | 41083 ft | 569 kts | 129° |
| 2026-05-04 08:21 | -32.53567 | 146.60617 | 41083 ft | 568 kts | 129° |
| 2026-05-04 08:21 | -32.58328 | 146.68083 | 41081 ft | 568 kts | 129° |
| 2026-05-04 08:22 | -32.63090 | 146.75565 | 41079 ft | 568 kts | 129° |
| 2026-05-04 08:24 | -32.82043 | 147.05497 | 41082 ft | 566 kts | 129° |
| 2026-05-04 08:24 | -32.86767 | 147.12995 | 41081 ft | 566 kts | 129° |
| 2026-05-04 08:25 | -32.91483 | 147.20494 | 41083 ft | 566 kts | 129° |
| 2026-05-04 08:25 | -32.96197 | 147.28007 | 41086 ft | 566 kts | 129° |
| 2026-05-04 08:27 | -33.14969 | 147.58071 | 41081 ft | 564 kts | 129° |
| 2026-05-04 08:28 | -33.19613 | 147.65547 | 41089 ft | 564 kts | 128° |
| 2026-05-04 08:28 | -33.24279 | 147.73075 | 41083 ft | 564 kts | 128° |
| 2026-05-04 08:29 | -33.28942 | 147.80610 | 41083 ft | 563 kts | 128° |
| 2026-05-04 08:31 | -33.48905 | 148.08956 | 41090 ft | 559 kts | 135° |
| 2026-05-04 08:33 | -33.64564 | 148.34564 | 41091 ft | 562 kts | 110° |
| 2026-05-04 08:33 | -33.65952 | 148.38946 | 41085 ft | 563 kts | 110° |
| 2026-05-04 08:35 | -33.76948 | 148.74077 | 40730 ft | 559 kts | 110° |
| 2026-05-04 08:35 | -33.78042 | 148.77592 | 40092 ft | 562 kts | 110° |
| 2026-05-04 08:35 | -33.79416 | 148.82013 | 39211 ft | 569 kts | 110° |
| 2026-05-04 08:37 | -33.87814 | 149.09178 | 34122 ft | 582 kts | 109° |
| 2026-05-04 08:37 | -33.89217 | 149.13740 | 33361 ft | 579 kts | 108° |
| 2026-05-04 08:37 | -33.90608 | 149.18266 | 32744 ft | 574 kts | 108° |
| 2026-05-04 08:38 | -33.91981 | 149.22745 | 32136 ft | 569 kts | 108° |
| 2026-05-04 08:38 | -33.93344 | 149.27198 | 31513 ft | 564 kts | 108° |
| 2026-05-04 08:38 | -33.94691 | 149.31604 | 30916 ft | 558 kts | 108° |
| 2026-05-04 08:40 | -34.03659 | 149.61117 | 26787 ft | 522 kts | 107° |
| 2026-05-04 08:40 | -34.04898 | 149.65218 | 26216 ft | 518 kts | 107° |
| 2026-05-04 08:40 | -34.06124 | 149.69282 | 25643 ft | 514 kts | 107° |
| 2026-05-04 08:41 | -34.07341 | 149.73321 | 25063 ft | 510 kts | 107° |
| 2026-05-04 08:41 | -34.08513 | 149.77217 | 24522 ft | 506 kts | 107° |
| 2026-05-04 08:41 | -34.09706 | 149.81185 | 23999 ft | 501 kts | 107° |
| 2026-05-04 08:41 | -34.10889 | 149.85128 | 23405 ft | 497 kts | 107° |
| 2026-05-04 08:42 | -34.12055 | 149.89020 | 22777 ft | 492 kts | 107° |
| 2026-05-04 08:42 | -34.13199 | 149.92842 | 22188 ft | 486 kts | 107° |
| 2026-05-04 08:42 | -34.14340 | 149.96660 | 21592 ft | 481 kts | 107° |
| 2026-05-04 08:42 | -34.15469 | 150.00434 | 21026 ft | 475 kts | 107° |
| 2026-05-04 08:43 | -34.16582 | 150.04166 | 20471 ft | 470 kts | 107° |
| 2026-05-04 08:43 | -34.17680 | 150.07858 | 19912 ft | 464 kts | 107° |
| 2026-05-04 08:43 | -34.18761 | 150.11500 | 19375 ft | 459 kts | 107° |
| 2026-05-04 08:43 | -34.19833 | 150.15109 | 18821 ft | 454 kts | 107° |
| 2026-05-04 08:44 | -34.20892 | 150.18676 | 18275 ft | 448 kts | 107° |
| 2026-05-04 08:44 | -34.21936 | 150.22199 | 17641 ft | 443 kts | 107° |
| 2026-05-04 08:46 | -34.26998 | 150.45641 | 14095 ft | 380 kts | 64° |
| 2026-05-04 08:46 | -34.26365 | 150.47336 | 13833 ft | 372 kts | 56° |
| 2026-05-04 08:46 | -34.25126 | 150.49995 | 13347 ft | 365 kts | 54° |
| 2026-05-04 08:46 | -34.23875 | 150.52637 | 12890 ft | 359 kts | 55° |
| 2026-05-04 08:47 | -34.22664 | 150.55247 | 12455 ft | 354 kts | 55° |
| 2026-05-04 08:47 | -34.21726 | 150.57295 | 12108 ft | 351 kts | 56° |
| 2026-05-04 08:47 | -34.20561 | 150.59860 | 11676 ft | 347 kts | 56° |
| 2026-05-04 08:47 | -34.19409 | 150.62409 | 11230 ft | 344 kts | 56° |
| 2026-05-04 08:48 | -34.18272 | 150.64932 | 10814 ft | 340 kts | 56° |
| 2026-05-04 08:48 | -34.17157 | 150.67426 | 10459 ft | 333 kts | 56° |
| 2026-05-04 08:48 | -34.16086 | 150.69824 | 10319 ft | 310 kts | 56° |
| 2026-05-04 08:48 | -34.15109 | 150.72010 | 10181 ft | 283 kts | 55° |
| 2026-05-04 08:49 | -34.14198 | 150.74034 | 10056 ft | 272 kts | 54° |
| 2026-05-04 08:50 | -34.08813 | 150.85922 | 8606 ft | 290 kts | 55° |
| 2026-05-04 08:50 | -34.08309 | 150.87044 | 8458 ft | 289 kts | 55° |
| 2026-05-04 08:51 | -34.07352 | 150.89171 | 8209 ft | 288 kts | 55° |
| 2026-05-04 08:51 | -34.06436 | 150.91206 | 7971 ft | 287 kts | 55° |
| 2026-05-04 08:51 | -34.05791 | 150.92635 | 7785 ft | 285 kts | 55° |
| 2026-05-04 08:51 | -34.04883 | 150.94650 | 7551 ft | 284 kts | 55° |
| 2026-05-04 08:52 | -34.03945 | 150.96743 | 7299 ft | 284 kts | 56° |
| 2026-05-04 08:52 | -34.03281 | 150.99001 | 7034 ft | 293 kts | 76° |
| 2026-05-04 08:52 | -34.03476 | 151.01466 | 6775 ft | 303 kts | 106° |
| 2026-05-04 08:53 | -34.06074 | 151.05449 | 6231 ft | 307 kts | 133° |
| 2026-05-04 08:54 | -34.18060 | 151.10343 | 4594 ft | 244 kts | 170° |
| 2026-05-04 08:55 | -34.19697 | 151.10846 | 4445 ft | 244 kts | 159° |
| 2026-05-04 08:55 | -34.21046 | 151.12037 | 4299 ft | 240 kts | 126° |
| 2026-05-04 08:55 | -34.21716 | 151.13821 | 4196 ft | 230 kts | 94° |
| 2026-05-04 08:55 | -34.21831 | 151.15724 | 4068 ft | 226 kts | 84° |
| 2026-05-04 08:57 | -34.17716 | 151.23622 | 3241 ft | 172 kts | 345° |
| 2026-05-04 09:01 | -34.03031 | 151.19784 | 1357 ft | 122 kts | 351° |
| 2026-05-04 09:01 | -34.02195 | 151.19567 | 1190 ft | 124 kts | 349° |
| 2026-05-04 09:01 | -34.01349 | 151.19345 | 1033 ft | 125 kts | 350° |
| 2026-05-04 09:01 | -34.00497 | 151.19122 | 871 ft | 126 kts | 351° |
| 2026-05-04 09:02 | -33.99648 | 151.18903 | 721 ft | 124 kts | 352° |
| 2026-05-04 09:02 | -33.98808 | 151.18691 | 558 ft | 123 kts | 351° |
| 2026-05-04 09:02 | -33.97964 | 151.18474 | 381 ft | 124 kts | 351° |
| 2026-05-04 09:02 | -33.97121 | 151.18246 | 213 ft | 125 kts | 349° |
| 2026-05-04 09:03 | -33.96273 | 151.18023 | 83 ft | 124 kts | 350° |
| 2026-05-04 09:03 | -33.95459 | 151.17818 | 35 ft | 108 kts | 345° |
| 2026-05-04 09:03 | -33.94973 | 151.17689 | 34 ft | 55 kts | 348° |
| 2026-05-04 09:03 | -33.94701 | 151.17617 | 35 ft | 36 kts | 346° |
| 2026-05-04 09:04 | -33.94479 | 151.17514 | 36 ft | 32 kts | 333° |
| 2026-05-04 09:04 | -33.94328 | 151.17360 | 36 ft | 27 kts | 319° |
| 2026-05-04 09:04 | -33.94245 | 151.17290 | 36 ft | 0 kts | 353° |
| 2026-05-04 09:05 | -33.94205 | 151.17283 | 35 ft | 14 kts | 351° |
| 2026-05-04 09:05 | -33.94099 | 151.17260 | 35 ft | 16 kts | 347° |
| 2026-05-04 09:05 | -33.93990 | 151.17220 | 35 ft | 12 kts | 323° |
| 2026-05-04 09:05 | -33.93985 | 151.17157 | 36 ft | 17 kts | 257° |
| 2026-05-04 09:06 | -33.94024 | 151.16995 | 36 ft | 21 kts | 253° |
| 2026-05-04 09:07 | -33.94027 | 151.16540 | 36 ft | 0 kts | 345° |